sensor_id;sensor_type;location;lat;lon;timestamp;P1;durP1;ratioP1;P2;durP2;ratioP2
79019;SDS011;72857;44.740;37.770;2023-11-21T00:00:37;16.85;;;9.98;;
79019;SDS011;72857;44.740;37.770;2023-11-21T00:01:38;15.02;;;10.00;;
79019;SDS011;72857;44.740;37.770;2023-11-21T00:02:40;15.57;;;9.77;;
79019;SDS011;72857;44.740;37.770;2023-11-21T00:03:42;15.30;;;9.68;;
79019;SDS011;72857;44.740;37.770;2023-11-21T00:04:44;15.02;;;8.27;;
79019;SDS011;72857;44.740;37.770;2023-11-21T00:05:46;14.80;;;9.45;;
79019;SDS011;72857;44.740;37.770;2023-11-21T00:06:48;13.98;;;9.07;;
79019;SDS011;72857;44.740;37.770;2023-11-21T00:07:50;15.35;;;8.88;;
79019;SDS011;72857;44.740;37.770;2023-11-21T00:08:52;12.48;;;8.57;;
79019;SDS011;72857;44.740;37.770;2023-11-21T00:09:53;15.52;;;8.90;;
79019;SDS011;72857;44.740;37.770;2023-11-21T00:10:56;15.48;;;8.40;;
79019;SDS011;72857;44.740;37.770;2023-11-21T00:12:02;14.00;;;8.13;;
79019;SDS011;72857;44.740;37.770;2023-11-21T00:13:04;14.23;;;8.13;;
79019;SDS011;72857;44.740;37.770;2023-11-21T00:14:05;15.45;;;8.27;;
79019;SDS011;72857;44.740;37.770;2023-11-21T00:15:07;14.52;;;8.60;;
79019;SDS011;72857;44.740;37.770;2023-11-21T00:16:12;12.98;;;8.00;;
79019;SDS011;72857;44.740;37.770;2023-11-21T00:17:13;14.05;;;7.82;;
79019;SDS011;72857;44.740;37.770;2023-11-21T00:18:14;15.18;;;8.65;;
79019;SDS011;72857;44.740;37.770;2023-11-21T00:19:15;13.40;;;8.75;;
79019;SDS011;72857;44.740;37.770;2023-11-21T00:20:18;11.63;;;8.07;;
79019;SDS011;72857;44.740;37.770;2023-11-21T00:21:19;13.32;;;9.02;;
79019;SDS011;72857;44.740;37.770;2023-11-21T00:22:21;12.80;;;7.95;;
79019;SDS011;72857;44.740;37.770;2023-11-21T00:23:22;16.52;;;9.75;;
79019;SDS011;72857;44.740;37.770;2023-11-21T00:24:23;13.70;;;8.00;;
79019;SDS011;72857;44.740;37.770;2023-11-21T00:25:25;16.38;;;8.88;;
79019;SDS011;72857;44.740;37.770;2023-11-21T00:26:26;13.52;;;8.77;;
79019;SDS011;72857;44.740;37.770;2023-11-21T00:27:35;18.42;;;8.80;;
79019;SDS011;72857;44.740;37.770;2023-11-21T00:28:37;14.90;;;8.50;;
79019;SDS011;72857;44.740;37.770;2023-11-21T00:29:38;16.60;;;9.55;;
79019;SDS011;72857;44.740;37.770;2023-11-21T00:30:40;14.32;;;8.73;;
79019;SDS011;72857;44.740;37.770;2023-11-21T00:31:41;15.18;;;9.38;;
79019;SDS011;72857;44.740;37.770;2023-11-21T00:32:42;15.00;;;8.50;;
79019;SDS011;72857;44.740;37.770;2023-11-21T00:33:44;13.13;;;8.68;;
79019;SDS011;72857;44.740;37.770;2023-11-21T00:34:45;12.95;;;8.85;;
79019;SDS011;72857;44.740;37.770;2023-11-21T00:35:46;16.83;;;9.80;;
79019;SDS011;72857;44.740;37.770;2023-11-21T00:36:48;14.35;;;8.90;;
79019;SDS011;72857;44.740;37.770;2023-11-21T00:37:49;13.68;;;9.45;;
79019;SDS011;72857;44.740;37.770;2023-11-21T00:38:50;16.00;;;9.80;;
79019;SDS011;72857;44.740;37.770;2023-11-21T00:39:51;14.13;;;8.93;;
79019;SDS011;72857;44.740;37.770;2023-11-21T00:40:53;12.88;;;9.18;;
79019;SDS011;72857;44.740;37.770;2023-11-21T00:41:56;13.85;;;9.32;;
79019;SDS011;72857;44.740;37.770;2023-11-21T00:42:59;13.60;;;8.30;;
79019;SDS011;72857;44.740;37.770;2023-11-21T00:44:00;15.10;;;9.23;;
79019;SDS011;72857;44.740;37.770;2023-11-21T00:45:02;14.15;;;9.13;;
79019;SDS011;72857;44.740;37.770;2023-11-21T00:46:06;13.75;;;8.27;;
79019;SDS011;72857;44.740;37.770;2023-11-21T00:47:10;13.38;;;8.68;;
79019;SDS011;72857;44.740;37.770;2023-11-21T00:48:12;15.88;;;9.43;;
79019;SDS011;72857;44.740;37.770;2023-11-21T00:49:14;15.98;;;8.93;;
79019;SDS011;72857;44.740;37.770;2023-11-21T00:50:15;14.23;;;8.57;;
79019;SDS011;72857;44.740;37.770;2023-11-21T00:51:17;17.55;;;9.32;;
79019;SDS011;72857;44.740;37.770;2023-11-21T00:52:18;14.38;;;9.02;;
79019;SDS011;72857;44.740;37.770;2023-11-21T00:53:19;16.85;;;8.80;;
79019;SDS011;72857;44.740;37.770;2023-11-21T00:54:21;12.88;;;9.15;;
79019;SDS011;72857;44.740;37.770;2023-11-21T00:55:22;13.43;;;9.15;;
79019;SDS011;72857;44.740;37.770;2023-11-21T00:56:23;16.25;;;9.45;;
79019;SDS011;72857;44.740;37.770;2023-11-21T00:57:25;14.38;;;8.70;;
79019;SDS011;72857;44.740;37.770;2023-11-21T00:58:27;15.77;;;9.55;;
79019;SDS011;72857;44.740;37.770;2023-11-21T00:59:28;18.20;;;10.57;;
79019;SDS011;72857;44.740;37.770;2023-11-21T01:00:31;18.40;;;10.05;;
79019;SDS011;72857;44.740;37.770;2023-11-21T01:01:32;17.33;;;10.68;;
79019;SDS011;72857;44.740;37.770;2023-11-21T01:02:34;19.50;;;10.00;;
79019;SDS011;72857;44.740;37.770;2023-11-21T01:03:36;21.00;;;10.32;;
79019;SDS011;72857;44.740;37.770;2023-11-21T01:04:37;20.13;;;11.75;;
79019;SDS011;72857;44.740;37.770;2023-11-21T01:05:39;18.27;;;10.73;;
79019;SDS011;72857;44.740;37.770;2023-11-21T01:06:40;18.80;;;11.55;;
79019;SDS011;72857;44.740;37.770;2023-11-21T01:07:43;18.83;;;9.88;;
79019;SDS011;72857;44.740;37.770;2023-11-21T01:08:45;19.27;;;10.68;;
79019;SDS011;72857;44.740;37.770;2023-11-21T01:09:47;16.38;;;9.80;;
79019;SDS011;72857;44.740;37.770;2023-11-21T01:10:49;18.92;;;11.10;;
79019;SDS011;72857;44.740;37.770;2023-11-21T01:11:50;17.63;;;12.70;;
79019;SDS011;72857;44.740;37.770;2023-11-21T01:12:52;16.25;;;10.82;;
79019;SDS011;72857;44.740;37.770;2023-11-21T01:13:54;18.35;;;10.40;;
79019;SDS011;72857;44.740;37.770;2023-11-21T01:14:55;17.70;;;10.82;;
79019;SDS011;72857;44.740;37.770;2023-11-21T01:16:00;17.70;;;10.55;;
79019;SDS011;72857;44.740;37.770;2023-11-21T01:17:02;13.27;;;8.63;;
79019;SDS011;72857;44.740;37.770;2023-11-21T01:18:06;16.38;;;10.75;;
79019;SDS011;72857;44.740;37.770;2023-11-21T01:19:07;18.27;;;11.07;;
79019;SDS011;72857;44.740;37.770;2023-11-21T01:20:09;19.48;;;11.90;;
79019;SDS011;72857;44.740;37.770;2023-11-21T01:21:14;17.58;;;11.45;;
79019;SDS011;72857;44.740;37.770;2023-11-21T01:22:15;16.70;;;11.57;;
79019;SDS011;72857;44.740;37.770;2023-11-21T01:23:17;18.58;;;12.20;;
79019;SDS011;72857;44.740;37.770;2023-11-21T01:24:18;17.90;;;11.27;;
79019;SDS011;72857;44.740;37.770;2023-11-21T01:25:20;21.23;;;12.23;;
79019;SDS011;72857;44.740;37.770;2023-11-21T01:26:23;16.40;;;10.65;;
79019;SDS011;72857;44.740;37.770;2023-11-21T01:27:24;19.05;;;11.27;;
79019;SDS011;72857;44.740;37.770;2023-11-21T01:28:26;16.30;;;10.00;;
79019;SDS011;72857;44.740;37.770;2023-11-21T01:29:27;14.32;;;9.73;;
79019;SDS011;72857;44.740;37.770;2023-11-21T01:30:30;14.80;;;9.70;;
79019;SDS011;72857;44.740;37.770;2023-11-21T01:31:33;15.70;;;9.57;;
79019;SDS011;72857;44.740;37.770;2023-11-21T01:32:35;17.30;;;9.77;;
79019;SDS011;72857;44.740;37.770;2023-11-21T01:33:38;15.38;;;9.82;;
79019;SDS011;72857;44.740;37.770;2023-11-21T01:34:40;14.38;;;9.60;;
79019;SDS011;72857;44.740;37.770;2023-11-21T01:35:41;15.10;;;9.10;;
79019;SDS011;72857;44.740;37.770;2023-11-21T01:36:45;15.95;;;9.40;;
79019;SDS011;72857;44.740;37.770;2023-11-21T01:37:47;16.02;;;9.93;;
79019;SDS011;72857;44.740;37.770;2023-11-21T01:38:49;16.67;;;8.98;;
79019;SDS011;72857;44.740;37.770;2023-11-21T01:39:50;17.15;;;10.25;;
79019;SDS011;72857;44.740;37.770;2023-11-21T01:40:52;16.02;;;10.73;;
79019;SDS011;72857;44.740;37.770;2023-11-21T01:41:53;15.65;;;10.02;;
79019;SDS011;72857;44.740;37.770;2023-11-21T01:42:55;14.35;;;9.00;;
79019;SDS011;72857;44.740;37.770;2023-11-21T01:43:56;17.23;;;10.07;;
79019;SDS011;72857;44.740;37.770;2023-11-21T01:44:59;18.80;;;10.77;;
79019;SDS011;72857;44.740;37.770;2023-11-21T01:46:00;15.60;;;9.73;;
79019;SDS011;72857;44.740;37.770;2023-11-21T01:47:02;14.43;;;8.77;;
79019;SDS011;72857;44.740;37.770;2023-11-21T01:48:05;17.17;;;9.23;;
79019;SDS011;72857;44.740;37.770;2023-11-21T01:49:07;15.50;;;8.43;;
79019;SDS011;72857;44.740;37.770;2023-11-21T01:50:15;13.65;;;8.30;;
79019;SDS011;72857;44.740;37.770;2023-11-21T01:51:18;12.45;;;8.10;;
79019;SDS011;72857;44.740;37.770;2023-11-21T01:52:20;13.75;;;8.00;;
79019;SDS011;72857;44.740;37.770;2023-11-21T01:53:21;14.98;;;8.23;;
79019;SDS011;72857;44.740;37.770;2023-11-21T01:54:25;14.32;;;7.57;;
79019;SDS011;72857;44.740;37.770;2023-11-21T01:55:27;17.20;;;8.32;;
79019;SDS011;72857;44.740;37.770;2023-11-21T01:56:31;15.02;;;7.95;;
79019;SDS011;72857;44.740;37.770;2023-11-21T01:57:33;14.13;;;8.38;;
79019;SDS011;72857;44.740;37.770;2023-11-21T01:58:36;14.15;;;7.30;;
79019;SDS011;72857;44.740;37.770;2023-11-21T01:59:37;12.85;;;7.55;;
79019;SDS011;72857;44.740;37.770;2023-11-21T02:00:40;11.27;;;6.80;;
79019;SDS011;72857;44.740;37.770;2023-11-21T02:01:42;12.80;;;8.07;;
79019;SDS011;72857;44.740;37.770;2023-11-21T02:02:43;11.80;;;7.43;;
79019;SDS011;72857;44.740;37.770;2023-11-21T02:03:45;11.60;;;7.10;;
79019;SDS011;72857;44.740;37.770;2023-11-21T02:04:46;14.52;;;7.85;;
79019;SDS011;72857;44.740;37.770;2023-11-21T02:05:48;13.45;;;8.45;;
79019;SDS011;72857;44.740;37.770;2023-11-21T02:06:49;13.25;;;7.38;;
79019;SDS011;72857;44.740;37.770;2023-11-21T02:07:51;13.73;;;8.73;;
79019;SDS011;72857;44.740;37.770;2023-11-21T02:08:53;13.85;;;8.15;;
79019;SDS011;72857;44.740;37.770;2023-11-21T02:09:54;18.35;;;8.43;;
79019;SDS011;72857;44.740;37.770;2023-11-21T02:10:56;13.65;;;8.43;;
79019;SDS011;72857;44.740;37.770;2023-11-21T02:11:58;15.57;;;8.57;;
79019;SDS011;72857;44.740;37.770;2023-11-21T02:13:00;15.45;;;8.60;;
79019;SDS011;72857;44.740;37.770;2023-11-21T02:14:03;14.82;;;9.05;;
79019;SDS011;72857;44.740;37.770;2023-11-21T02:15:08;16.33;;;10.30;;
79019;SDS011;72857;44.740;37.770;2023-11-21T02:16:17;13.38;;;9.23;;
79019;SDS011;72857;44.740;37.770;2023-11-21T02:17:19;20.70;;;9.05;;
79019;SDS011;72857;44.740;37.770;2023-11-21T02:18:21;15.68;;;9.40;;
79019;SDS011;72857;44.740;37.770;2023-11-21T02:19:23;17.58;;;9.63;;
79019;SDS011;72857;44.740;37.770;2023-11-21T02:20:26;15.38;;;10.35;;
79019;SDS011;72857;44.740;37.770;2023-11-21T02:21:30;15.45;;;9.60;;
79019;SDS011;72857;44.740;37.770;2023-11-21T02:22:35;15.77;;;9.73;;
79019;SDS011;72857;44.740;37.770;2023-11-21T02:23:41;17.20;;;10.23;;
79019;SDS011;72857;44.740;37.770;2023-11-21T02:24:46;17.85;;;10.85;;
79019;SDS011;72857;44.740;37.770;2023-11-21T02:25:48;14.55;;;9.23;;
79019;SDS011;72857;44.740;37.770;2023-11-21T02:26:51;15.45;;;9.43;;
79019;SDS011;72857;44.740;37.770;2023-11-21T02:27:52;16.63;;;10.50;;
79019;SDS011;72857;44.740;37.770;2023-11-21T02:28:55;19.25;;;10.77;;
79019;SDS011;72857;44.740;37.770;2023-11-21T02:29:59;16.80;;;9.98;;
79019;SDS011;72857;44.740;37.770;2023-11-21T02:31:01;16.73;;;9.55;;
79019;SDS011;72857;44.740;37.770;2023-11-21T02:32:05;17.20;;;10.80;;
79019;SDS011;72857;44.740;37.770;2023-11-21T02:33:06;17.55;;;10.32;;
79019;SDS011;72857;44.740;37.770;2023-11-21T02:34:08;17.85;;;11.25;;
79019;SDS011;72857;44.740;37.770;2023-11-21T02:35:09;23.02;;;12.70;;
79019;SDS011;72857;44.740;37.770;2023-11-21T02:36:12;19.17;;;10.77;;
79019;SDS011;72857;44.740;37.770;2023-11-21T02:37:14;18.10;;;10.60;;
79019;SDS011;72857;44.740;37.770;2023-11-21T02:38:17;21.30;;;11.43;;
79019;SDS011;72857;44.740;37.770;2023-11-21T02:39:18;17.85;;;10.55;;
79019;SDS011;72857;44.740;37.770;2023-11-21T02:40:23;20.23;;;10.82;;
79019;SDS011;72857;44.740;37.770;2023-11-21T02:41:26;16.45;;;10.80;;
79019;SDS011;72857;44.740;37.770;2023-11-21T02:42:28;24.60;;;10.77;;
79019;SDS011;72857;44.740;37.770;2023-11-21T02:43:29;26.50;;;11.27;;
79019;SDS011;72857;44.740;37.770;2023-11-21T02:44:31;19.98;;;11.15;;
79019;SDS011;72857;44.740;37.770;2023-11-21T02:45:32;17.95;;;11.38;;
79019;SDS011;72857;44.740;37.770;2023-11-21T02:46:34;20.33;;;11.20;;
79019;SDS011;72857;44.740;37.770;2023-11-21T02:47:36;20.17;;;11.13;;
79019;SDS011;72857;44.740;37.770;2023-11-21T02:48:37;21.92;;;11.02;;
79019;SDS011;72857;44.740;37.770;2023-11-21T02:49:38;23.20;;;11.48;;
79019;SDS011;72857;44.740;37.770;2023-11-21T02:50:40;18.48;;;11.77;;
79019;SDS011;72857;44.740;37.770;2023-11-21T02:51:42;17.27;;;9.85;;
79019;SDS011;72857;44.740;37.770;2023-11-21T02:52:44;20.02;;;10.30;;
79019;SDS011;72857;44.740;37.770;2023-11-21T02:53:45;19.10;;;11.98;;
79019;SDS011;72857;44.740;37.770;2023-11-21T02:54:47;20.02;;;10.57;;
79019;SDS011;72857;44.740;37.770;2023-11-21T02:55:48;18.50;;;10.40;;
79019;SDS011;72857;44.740;37.770;2023-11-21T02:56:50;15.40;;;9.52;;
79019;SDS011;72857;44.740;37.770;2023-11-21T02:57:52;16.35;;;10.18;;
79019;SDS011;72857;44.740;37.770;2023-11-21T02:58:56;16.60;;;8.77;;
79019;SDS011;72857;44.740;37.770;2023-11-21T02:59:58;16.77;;;9.45;;
79019;SDS011;72857;44.740;37.770;2023-11-21T03:01:00;18.50;;;9.90;;
79019;SDS011;72857;44.740;37.770;2023-11-21T03:02:02;15.38;;;9.10;;
79019;SDS011;72857;44.740;37.770;2023-11-21T03:03:04;15.27;;;9.95;;
79019;SDS011;72857;44.740;37.770;2023-11-21T03:04:05;17.42;;;9.40;;
79019;SDS011;72857;44.740;37.770;2023-11-21T03:05:08;17.92;;;9.35;;
79019;SDS011;72857;44.740;37.770;2023-11-21T03:06:10;15.90;;;10.30;;
79019;SDS011;72857;44.740;37.770;2023-11-21T03:07:12;15.48;;;9.90;;
79019;SDS011;72857;44.740;37.770;2023-11-21T03:08:13;18.15;;;10.32;;
79019;SDS011;72857;44.740;37.770;2023-11-21T03:09:14;14.35;;;9.13;;
79019;SDS011;72857;44.740;37.770;2023-11-21T03:10:17;15.18;;;8.73;;
79019;SDS011;72857;44.740;37.770;2023-11-21T03:11:20;16.95;;;9.32;;
79019;SDS011;72857;44.740;37.770;2023-11-21T03:12:21;15.48;;;9.23;;
79019;SDS011;72857;44.740;37.770;2023-11-21T03:13:22;15.00;;;9.18;;
79019;SDS011;72857;44.740;37.770;2023-11-21T03:14:24;14.85;;;9.30;;
79019;SDS011;72857;44.740;37.770;2023-11-21T03:15:25;14.55;;;8.98;;
79019;SDS011;72857;44.740;37.770;2023-11-21T03:16:26;16.52;;;10.50;;
79019;SDS011;72857;44.740;37.770;2023-11-21T03:17:27;16.33;;;9.88;;
79019;SDS011;72857;44.740;37.770;2023-11-21T03:18:29;16.05;;;8.75;;
79019;SDS011;72857;44.740;37.770;2023-11-21T03:19:31;14.85;;;8.88;;
79019;SDS011;72857;44.740;37.770;2023-11-21T03:20:32;14.55;;;9.13;;
79019;SDS011;72857;44.740;37.770;2023-11-21T03:21:33;14.60;;;9.18;;
79019;SDS011;72857;44.740;37.770;2023-11-21T03:22:35;16.63;;;9.90;;
79019;SDS011;72857;44.740;37.770;2023-11-21T03:23:37;15.38;;;9.63;;
79019;SDS011;72857;44.740;37.770;2023-11-21T03:24:39;17.55;;;10.05;;
79019;SDS011;72857;44.740;37.770;2023-11-21T03:25:40;17.70;;;10.20;;
79019;SDS011;72857;44.740;37.770;2023-11-21T03:26:44;16.00;;;10.02;;
79019;SDS011;72857;44.740;37.770;2023-11-21T03:27:46;19.05;;;10.60;;
79019;SDS011;72857;44.740;37.770;2023-11-21T03:28:48;18.05;;;10.45;;
79019;SDS011;72857;44.740;37.770;2023-11-21T03:29:49;16.13;;;9.82;;
79019;SDS011;72857;44.740;37.770;2023-11-21T03:30:51;17.42;;;9.82;;
79019;SDS011;72857;44.740;37.770;2023-11-21T03:31:53;18.63;;;10.10;;
79019;SDS011;72857;44.740;37.770;2023-11-21T03:32:55;16.80;;;10.43;;
79019;SDS011;72857;44.740;37.770;2023-11-21T03:33:56;17.25;;;10.63;;
79019;SDS011;72857;44.740;37.770;2023-11-21T03:34:58;17.65;;;10.40;;
79019;SDS011;72857;44.740;37.770;2023-11-21T03:35:59;17.77;;;9.82;;
79019;SDS011;72857;44.740;37.770;2023-11-21T03:37:01;16.05;;;9.57;;
79019;SDS011;72857;44.740;37.770;2023-11-21T03:38:02;15.55;;;9.38;;
79019;SDS011;72857;44.740;37.770;2023-11-21T03:39:04;14.98;;;10.20;;
79019;SDS011;72857;44.740;37.770;2023-11-21T03:40:06;16.83;;;9.63;;
79019;SDS011;72857;44.740;37.770;2023-11-21T03:41:09;17.38;;;10.93;;
79019;SDS011;72857;44.740;37.770;2023-11-21T03:42:10;15.23;;;9.15;;
79019;SDS011;72857;44.740;37.770;2023-11-21T03:43:12;17.15;;;10.00;;
79019;SDS011;72857;44.740;37.770;2023-11-21T03:44:14;16.02;;;9.65;;
79019;SDS011;72857;44.740;37.770;2023-11-21T03:45:15;15.48;;;9.55;;
79019;SDS011;72857;44.740;37.770;2023-11-21T03:46:17;17.67;;;10.23;;
79019;SDS011;72857;44.740;37.770;2023-11-21T03:47:19;15.65;;;10.02;;
79019;SDS011;72857;44.740;37.770;2023-11-21T03:48:20;17.27;;;10.32;;
79019;SDS011;72857;44.740;37.770;2023-11-21T03:49:21;15.50;;;10.35;;
79019;SDS011;72857;44.740;37.770;2023-11-21T03:50:23;18.90;;;11.27;;
79019;SDS011;72857;44.740;37.770;2023-11-21T03:51:24;18.80;;;10.57;;
79019;SDS011;72857;44.740;37.770;2023-11-21T03:52:25;17.17;;;9.88;;
79019;SDS011;72857;44.740;37.770;2023-11-21T03:53:29;17.15;;;10.05;;
79019;SDS011;72857;44.740;37.770;2023-11-21T03:54:30;15.73;;;10.18;;
79019;SDS011;72857;44.740;37.770;2023-11-21T03:55:31;16.05;;;9.50;;
79019;SDS011;72857;44.740;37.770;2023-11-21T03:56:33;16.25;;;10.02;;
79019;SDS011;72857;44.740;37.770;2023-11-21T03:57:34;17.85;;;10.88;;
79019;SDS011;72857;44.740;37.770;2023-11-21T03:58:36;16.40;;;10.20;;
79019;SDS011;72857;44.740;37.770;2023-11-21T03:59:39;17.38;;;10.32;;
79019;SDS011;72857;44.740;37.770;2023-11-21T04:00:42;18.42;;;10.43;;
79019;SDS011;72857;44.740;37.770;2023-11-21T04:01:43;17.98;;;10.88;;
79019;SDS011;72857;44.740;37.770;2023-11-21T04:02:45;16.67;;;10.52;;
79019;SDS011;72857;44.740;37.770;2023-11-21T04:03:47;18.10;;;10.88;;
79019;SDS011;72857;44.740;37.770;2023-11-21T04:04:48;18.90;;;10.98;;
79019;SDS011;72857;44.740;37.770;2023-11-21T04:05:49;14.20;;;8.93;;
79019;SDS011;72857;44.740;37.770;2023-11-21T04:06:51;16.65;;;10.13;;
79019;SDS011;72857;44.740;37.770;2023-11-21T04:07:55;16.35;;;9.98;;
79019;SDS011;72857;44.740;37.770;2023-11-21T04:08:56;18.73;;;10.88;;
79019;SDS011;72857;44.740;37.770;2023-11-21T04:09:57;17.55;;;11.25;;
79019;SDS011;72857;44.740;37.770;2023-11-21T04:10:58;17.88;;;9.55;;
79019;SDS011;72857;44.740;37.770;2023-11-21T04:12:00;15.77;;;9.65;;
79019;SDS011;72857;44.740;37.770;2023-11-21T04:13:01;17.23;;;9.65;;
79019;SDS011;72857;44.740;37.770;2023-11-21T04:14:02;17.52;;;9.50;;
79019;SDS011;72857;44.740;37.770;2023-11-21T04:15:04;15.30;;;9.73;;
79019;SDS011;72857;44.740;37.770;2023-11-21T04:16:06;19.50;;;10.40;;
79019;SDS011;72857;44.740;37.770;2023-11-21T04:17:08;16.25;;;10.00;;
79019;SDS011;72857;44.740;37.770;2023-11-21T04:18:10;19.35;;;10.15;;
79019;SDS011;72857;44.740;37.770;2023-11-21T04:19:11;17.25;;;10.02;;
79019;SDS011;72857;44.740;37.770;2023-11-21T04:20:15;16.02;;;9.60;;
79019;SDS011;72857;44.740;37.770;2023-11-21T04:21:16;16.70;;;9.98;;
79019;SDS011;72857;44.740;37.770;2023-11-21T04:22:17;17.60;;;11.10;;
79019;SDS011;72857;44.740;37.770;2023-11-21T04:23:19;26.70;;;11.88;;
79019;SDS011;72857;44.740;37.770;2023-11-21T04:24:20;17.38;;;10.43;;
79019;SDS011;72857;44.740;37.770;2023-11-21T04:25:21;18.75;;;10.70;;
79019;SDS011;72857;44.740;37.770;2023-11-21T04:26:23;19.98;;;10.48;;
79019;SDS011;72857;44.740;37.770;2023-11-21T04:27:25;17.35;;;9.52;;
79019;SDS011;72857;44.740;37.770;2023-11-21T04:28:46;18.98;;;10.40;;
79019;SDS011;72857;44.740;37.770;2023-11-21T04:29:48;21.80;;;11.52;;
79019;SDS011;72857;44.740;37.770;2023-11-21T04:30:49;18.33;;;11.48;;
79019;SDS011;72857;44.740;37.770;2023-11-21T04:31:51;17.60;;;10.93;;
79019;SDS011;72857;44.740;37.770;2023-11-21T04:32:52;16.13;;;10.30;;
79019;SDS011;72857;44.740;37.770;2023-11-21T04:33:53;18.02;;;11.07;;
79019;SDS011;72857;44.740;37.770;2023-11-21T04:34:55;16.83;;;10.65;;
79019;SDS011;72857;44.740;37.770;2023-11-21T04:35:56;19.08;;;10.73;;
79019;SDS011;72857;44.740;37.770;2023-11-21T04:36:57;21.40;;;12.00;;
79019;SDS011;72857;44.740;37.770;2023-11-21T04:37:58;18.60;;;10.40;;
79019;SDS011;72857;44.740;37.770;2023-11-21T04:39:00;15.82;;;11.45;;
79019;SDS011;72857;44.740;37.770;2023-11-21T04:40:01;18.08;;;11.30;;
79019;SDS011;72857;44.740;37.770;2023-11-21T04:41:07;16.92;;;10.73;;
79019;SDS011;72857;44.740;37.770;2023-11-21T04:42:09;19.55;;;11.57;;
79019;SDS011;72857;44.740;37.770;2023-11-21T04:43:10;19.00;;;11.48;;
79019;SDS011;72857;44.740;37.770;2023-11-21T04:44:11;17.27;;;11.38;;
79019;SDS011;72857;44.740;37.770;2023-11-21T04:45:12;19.55;;;11.43;;
79019;SDS011;72857;44.740;37.770;2023-11-21T04:46:14;20.90;;;11.82;;
79019;SDS011;72857;44.740;37.770;2023-11-21T04:47:16;18.83;;;10.43;;
79019;SDS011;72857;44.740;37.770;2023-11-21T04:48:17;18.50;;;10.82;;
79019;SDS011;72857;44.740;37.770;2023-11-21T04:49:18;18.88;;;11.32;;
79019;SDS011;72857;44.740;37.770;2023-11-21T04:50:19;18.08;;;11.13;;
79019;SDS011;72857;44.740;37.770;2023-11-21T04:51:21;17.27;;;10.80;;
79019;SDS011;72857;44.740;37.770;2023-11-21T04:52:22;20.48;;;11.20;;
79019;SDS011;72857;44.740;37.770;2023-11-21T04:53:23;17.63;;;10.32;;
79019;SDS011;72857;44.740;37.770;2023-11-21T04:54:25;16.45;;;11.20;;
79019;SDS011;72857;44.740;37.770;2023-11-21T04:55:26;16.35;;;10.93;;
79019;SDS011;72857;44.740;37.770;2023-11-21T04:56:28;25.77;;;10.65;;
79019;SDS011;72857;44.740;37.770;2023-11-21T04:57:30;15.40;;;10.25;;
79019;SDS011;72857;44.740;37.770;2023-11-21T04:58:31;18.52;;;11.07;;
79019;SDS011;72857;44.740;37.770;2023-11-21T04:59:34;17.90;;;11.02;;
79019;SDS011;72857;44.740;37.770;2023-11-21T05:00:36;17.15;;;11.23;;
79019;SDS011;72857;44.740;37.770;2023-11-21T05:01:37;16.85;;;11.85;;
79019;SDS011;72857;44.740;37.770;2023-11-21T05:02:40;20.55;;;10.52;;
79019;SDS011;72857;44.740;37.770;2023-11-21T05:03:42;16.27;;;11.27;;
79019;SDS011;72857;44.740;37.770;2023-11-21T05:04:43;21.52;;;12.88;;
79019;SDS011;72857;44.740;37.770;2023-11-21T05:05:45;17.77;;;11.77;;
79019;SDS011;72857;44.740;37.770;2023-11-21T05:06:46;17.55;;;11.18;;
79019;SDS011;72857;44.740;37.770;2023-11-21T05:07:48;16.05;;;10.98;;
79019;SDS011;72857;44.740;37.770;2023-11-21T05:08:49;17.33;;;10.27;;
79019;SDS011;72857;44.740;37.770;2023-11-21T05:09:51;21.23;;;12.48;;
79019;SDS011;72857;44.740;37.770;2023-11-21T05:10:52;16.90;;;11.30;;
79019;SDS011;72857;44.740;37.770;2023-11-21T05:11:54;19.05;;;10.57;;
79019;SDS011;72857;44.740;37.770;2023-11-21T05:12:55;24.33;;;11.35;;
79019;SDS011;72857;44.740;37.770;2023-11-21T05:13:56;18.05;;;10.52;;
79019;SDS011;72857;44.740;37.770;2023-11-21T05:14:59;18.45;;;9.93;;
79019;SDS011;72857;44.740;37.770;2023-11-21T05:16:00;17.25;;;10.18;;
79019;SDS011;72857;44.740;37.770;2023-11-21T05:17:05;16.27;;;10.23;;
79019;SDS011;72857;44.740;37.770;2023-11-21T05:18:06;15.73;;;9.93;;
79019;SDS011;72857;44.740;37.770;2023-11-21T05:19:07;16.55;;;9.80;;
79019;SDS011;72857;44.740;37.770;2023-11-21T05:20:10;19.15;;;10.77;;
79019;SDS011;72857;44.740;37.770;2023-11-21T05:21:13;19.48;;;12.20;;
79019;SDS011;72857;44.740;37.770;2023-11-21T05:22:14;17.70;;;10.82;;
79019;SDS011;72857;44.740;37.770;2023-11-21T05:23:15;17.23;;;10.65;;
79019;SDS011;72857;44.740;37.770;2023-11-21T05:24:17;21.77;;;11.27;;
79019;SDS011;72857;44.740;37.770;2023-11-21T05:25:18;19.00;;;10.90;;
79019;SDS011;72857;44.740;37.770;2023-11-21T05:26:19;18.88;;;10.88;;
79019;SDS011;72857;44.740;37.770;2023-11-21T05:27:21;19.13;;;11.65;;
79019;SDS011;72857;44.740;37.770;2023-11-21T05:28:22;16.20;;;10.07;;
79019;SDS011;72857;44.740;37.770;2023-11-21T05:29:24;18.58;;;11.80;;
79019;SDS011;72857;44.740;37.770;2023-11-21T05:30:26;20.17;;;11.18;;
79019;SDS011;72857;44.740;37.770;2023-11-21T05:31:27;17.52;;;10.50;;
79019;SDS011;72857;44.740;37.770;2023-11-21T05:32:29;18.67;;;12.02;;
79019;SDS011;72857;44.740;37.770;2023-11-21T05:33:30;20.33;;;12.38;;
79019;SDS011;72857;44.740;37.770;2023-11-21T05:34:33;19.65;;;12.55;;
79019;SDS011;72857;44.740;37.770;2023-11-21T05:35:35;18.98;;;11.60;;
79019;SDS011;72857;44.740;37.770;2023-11-21T05:36:36;17.55;;;10.77;;
79019;SDS011;72857;44.740;37.770;2023-11-21T05:37:38;18.35;;;10.50;;
79019;SDS011;72857;44.740;37.770;2023-11-21T05:38:42;18.52;;;11.93;;
79019;SDS011;72857;44.740;37.770;2023-11-21T05:39:43;17.67;;;10.80;;
79019;SDS011;72857;44.740;37.770;2023-11-21T05:40:45;22.98;;;12.43;;
79019;SDS011;72857;44.740;37.770;2023-11-21T05:41:46;21.52;;;11.85;;
79019;SDS011;72857;44.740;37.770;2023-11-21T05:42:48;17.25;;;10.57;;
79019;SDS011;72857;44.740;37.770;2023-11-21T05:43:52;17.30;;;11.75;;
79019;SDS011;72857;44.740;37.770;2023-11-21T05:44:54;19.38;;;11.05;;
79019;SDS011;72857;44.740;37.770;2023-11-21T05:45:56;15.18;;;9.57;;
79019;SDS011;72857;44.740;37.770;2023-11-21T05:46:57;24.30;;;11.93;;
79019;SDS011;72857;44.740;37.770;2023-11-21T05:48:00;19.75;;;11.68;;
79019;SDS011;72857;44.740;37.770;2023-11-21T05:49:01;19.60;;;12.63;;
79019;SDS011;72857;44.740;37.770;2023-11-21T05:50:04;16.83;;;10.40;;
79019;SDS011;72857;44.740;37.770;2023-11-21T05:51:06;18.40;;;11.95;;
79019;SDS011;72857;44.740;37.770;2023-11-21T05:52:09;19.88;;;10.48;;
79019;SDS011;72857;44.740;37.770;2023-11-21T05:53:11;19.45;;;10.93;;
79019;SDS011;72857;44.740;37.770;2023-11-21T05:54:12;18.27;;;10.70;;
79019;SDS011;72857;44.740;37.770;2023-11-21T05:55:14;19.00;;;12.10;;
79019;SDS011;72857;44.740;37.770;2023-11-21T05:56:18;20.55;;;12.10;;
79019;SDS011;72857;44.740;37.770;2023-11-21T05:57:20;23.27;;;12.45;;
79019;SDS011;72857;44.740;37.770;2023-11-21T05:58:22;18.83;;;12.77;;
79019;SDS011;72857;44.740;37.770;2023-11-21T05:59:24;19.63;;;11.80;;